createdAt,value
2019-01-21T00:00:34.298Z,-8.60
2019-01-21T00:03:05.277Z,-8.60
2019-01-21T00:05:32.758Z,-8.70
2019-01-21T00:08:00.467Z,-8.70
2019-01-21T00:10:28.163Z,-8.70
2019-01-21T00:12:55.645Z,-8.80
2019-01-21T00:15:23.279Z,-8.80
2019-01-21T00:17:50.902Z,-8.80
2019-01-21T00:20:18.412Z,-8.80
2019-01-21T00:22:46.051Z,-8.90
2019-01-21T00:25:13.786Z,-8.80
2019-01-21T00:27:41.425Z,-8.80
2019-01-21T00:30:09.274Z,-8.90
2019-01-21T00:32:36.735Z,-8.90
2019-01-21T00:35:05.007Z,-8.90
2019-01-21T00:37:33.427Z,-8.90
2019-01-21T00:40:01.831Z,-8.90
2019-01-21T00:42:29.535Z,-8.90
2019-01-21T00:44:57.435Z,-8.80
2019-01-21T00:47:29.740Z,-8.90
2019-01-21T00:49:54.809Z,-9.00
2019-01-21T00:52:22.457Z,-8.90
2019-01-21T00:54:51.127Z,-9.00
2019-01-21T00:57:18.805Z,-9.00
2019-01-21T00:59:46.690Z,-9.00
2019-01-21T01:02:14.468Z,-9.00
2019-01-21T01:04:42.158Z,-9.00
2019-01-21T01:07:10.169Z,-8.90
2019-01-21T01:09:37.758Z,-8.90
2019-01-21T01:12:05.438Z,-8.90
2019-01-21T01:14:33.221Z,-8.90
2019-01-21T01:17:00.820Z,-8.90
2019-01-21T01:19:28.427Z,-8.80
2019-01-21T01:22:15.970Z,-8.80
2019-01-21T01:24:43.760Z,-8.90
2019-01-21T01:27:11.334Z,-8.80
2019-01-21T01:29:39.980Z,-8.90
2019-01-21T01:32:08.376Z,-8.90
2019-01-21T01:34:36.086Z,-9.00
2019-01-21T01:37:05.334Z,-9.10
2019-01-21T01:39:32.942Z,-9.10
2019-01-21T01:42:00.644Z,-9.10
2019-01-21T01:44:28.956Z,-9.20
2019-01-21T01:46:56.784Z,-9.20
2019-01-21T01:49:24.818Z,-9.20
2019-01-21T01:51:52.409Z,-9.20
2019-01-21T01:54:19.994Z,-9.20
2019-01-21T01:56:48.523Z,-9.20
2019-01-21T01:59:16.254Z,-9.20
2019-01-21T02:01:43.876Z,-9.20
2019-01-21T02:04:11.490Z,-9.30
2019-01-21T02:06:39.152Z,-9.30
2019-01-21T02:09:07.595Z,-9.10
2019-01-21T02:11:51.459Z,-9.10
2019-01-21T02:14:19.078Z,-9.10
2019-01-21T02:16:46.741Z,-9.20
2019-01-21T02:19:14.821Z,-9.20
2019-01-21T02:21:43.230Z,-9.20
2019-01-21T02:24:15.284Z,-9.20
2019-01-21T02:27:03.650Z,-9.20
2019-01-21T02:30:12.944Z,-9.30
2019-01-21T02:33:43.609Z,-9.30
2019-01-21T02:36:39.740Z,-9.30
2019-01-21T02:39:46.118Z,-9.40
2019-01-21T02:42:48.956Z,-9.40
2019-01-21T02:46:10.927Z,-9.40
2019-01-21T02:48:57.334Z,-9.40
2019-01-21T02:51:58.631Z,-9.50
2019-01-21T02:55:12.140Z,-9.40
2019-01-21T02:58:28.388Z,-9.50
2019-01-21T03:01:53.704Z,-9.50
2019-01-21T03:05:31.364Z,-9.50
2019-01-21T03:08:42.626Z,-9.50
2019-01-21T03:11:59.565Z,-9.50
2019-01-21T03:15:29.410Z,-9.60
2019-01-21T03:18:52.941Z,-9.60
2019-01-21T03:22:22.382Z,-9.60
2019-01-21T03:25:27.549Z,-9.70
2019-01-21T03:29:01.347Z,-9.70
2019-01-21T03:32:35.029Z,-9.70
2019-01-21T03:35:59.128Z,-9.70
2019-01-21T03:39:09.405Z,-9.70
2019-01-21T03:42:10.432Z,-9.70
2019-01-21T03:45:48.527Z,-9.70
2019-01-21T03:48:30.643Z,-9.70
2019-01-21T03:51:55.767Z,-9.70
2019-01-21T03:54:46.122Z,-9.70
2019-01-21T03:57:36.227Z,-9.70
2019-01-21T04:00:33.502Z,-9.60
2019-01-21T04:03:46.580Z,-9.50
2019-01-21T04:07:03.778Z,-9.50
2019-01-21T04:09:57.627Z,-9.50
2019-01-21T04:13:14.950Z,-9.40
2019-01-21T04:16:16.097Z,-9.30
2019-01-21T04:19:32.773Z,-9.40
2019-01-21T04:22:41.011Z,-9.40
2019-01-21T04:30:18.985Z,-9.40
2019-01-21T04:33:53.152Z,-9.40
2019-01-21T04:37:13.557Z,-9.40
2019-01-21T04:40:48.969Z,-9.40
2019-01-21T04:44:12.669Z,-9.50
2019-01-21T04:47:15.643Z,-9.50
2019-01-21T04:50:25.135Z,-9.50
2019-01-21T04:53:36.508Z,-9.50
2019-01-21T04:56:52.110Z,-9.50
2019-01-21T05:00:26.158Z,-9.60
2019-01-21T05:04:06.422Z,-9.60
2019-01-21T05:07:24.193Z,-9.50
2019-01-21T05:10:29.638Z,-9.50
2019-01-21T05:13:33.312Z,-9.40
2019-01-21T05:16:54.110Z,-9.30
2019-01-21T05:20:25.089Z,-9.20
2019-01-21T05:23:35.867Z,-9.10
2019-01-21T05:26:50.137Z,-8.90
2019-01-21T05:30:20.475Z,-8.80
2019-01-21T05:33:25.951Z,-8.60
2019-01-21T05:36:25.240Z,-8.50
2019-01-21T05:39:37.854Z,-8.30
2019-01-21T05:42:50.712Z,-8.20
2019-01-21T05:46:00.046Z,-8.00
2019-01-21T05:49:28.336Z,-7.90
2019-01-21T05:53:18.387Z,-7.70
2019-01-21T05:56:57.096Z,-7.50
2019-01-21T06:00:13.523Z,-7.40
2019-01-21T06:03:24.944Z,-7.30
2019-01-21T06:06:23.148Z,-7.20
2019-01-21T06:09:58.615Z,-7.10
2019-01-21T06:13:51.868Z,-6.90
2019-01-21T06:17:01.658Z,-6.80
2019-01-21T06:20:29.188Z,-6.70
2019-01-21T06:24:00.084Z,-6.60
2019-01-21T06:27:15.712Z,-6.50
2019-01-21T06:30:00.306Z,-6.40
2019-01-21T06:33:07.475Z,-6.30
2019-01-21T06:36:12.960Z,-6.10
2019-01-21T06:39:17.214Z,-6.20
2019-01-21T06:42:34.949Z,-6.10
2019-01-21T06:46:02.621Z,-6.10
2019-01-21T06:49:38.578Z,-6.00
2019-01-21T06:53:10.918Z,-5.90
2019-01-21T06:55:56.237Z,-5.80
2019-01-21T06:59:29.473Z,-5.70
2019-01-21T07:02:43.963Z,-5.60
2019-01-21T07:05:37.345Z,-5.50
2019-01-21T07:09:04.890Z,-5.40
2019-01-21T07:12:13.325Z,-5.40
2019-01-21T07:15:34.475Z,-5.30
2019-01-21T07:18:57.024Z,-5.30
2019-01-21T07:22:34.035Z,-5.20
2019-01-21T07:26:00.232Z,-5.20
2019-01-21T07:29:28.898Z,-5.20
2019-01-21T07:32:38.649Z,-5.20
2019-01-21T07:36:07.729Z,-5.10
2019-01-21T07:39:11.954Z,-5.20
2019-01-21T07:42:35.588Z,-5.10
2019-01-21T07:46:12.299Z,-5.00
2019-01-21T07:50:06.716Z,-5.00
2019-01-21T07:53:26.605Z,-4.90
2019-01-21T07:56:33.731Z,-4.80
2019-01-21T07:59:37.537Z,-4.90
2019-01-21T08:02:43.751Z,-4.80
2019-01-21T08:05:59.435Z,-4.80
2019-01-21T08:09:05.142Z,-4.80
2019-01-21T08:12:26.062Z,-4.70
2019-01-21T08:15:10.712Z,-4.70
2019-01-21T08:18:31.395Z,-4.70
2019-01-21T08:22:07.297Z,-4.70
2019-01-21T08:25:33.586Z,-4.70
2019-01-21T08:28:35.254Z,-4.70
2019-01-21T08:31:39.973Z,-4.80
2019-01-21T08:35:15.841Z,-4.80
2019-01-21T08:38:26.361Z,-4.80
2019-01-21T08:41:47.272Z,-4.70
2019-01-21T08:44:43.531Z,-4.60
2019-01-21T08:48:16.551Z,-4.50
2019-01-21T08:51:06.923Z,-4.40
2019-01-21T08:54:16.727Z,-4.30
2019-01-21T08:57:47.297Z,-4.40
2019-01-21T09:00:48.751Z,-4.30
2019-01-21T09:04:02.580Z,-4.20
2019-01-21T09:07:08.740Z,-4.20
2019-01-21T09:10:08.373Z,-4.30
2019-01-21T09:13:40.700Z,-4.10
2019-01-21T09:16:51.181Z,-4.00
2019-01-21T09:20:21.288Z,-4.00
2019-01-21T09:24:11.379Z,-4.00
2019-01-21T09:27:28.568Z,-3.90
2019-01-21T09:30:59.465Z,-3.90
2019-01-21T09:34:15.491Z,-3.90
2019-01-21T09:37:37.095Z,-3.90
2019-01-21T09:40:35.750Z,-3.80
2019-01-21T09:43:28.892Z,-3.80
2019-01-21T09:46:49.000Z,-3.80
2019-01-21T09:49:15.450Z,-3.70
2019-01-21T09:51:55.586Z,-3.80
2019-01-21T09:54:24.802Z,-3.60
2019-01-21T09:56:55.748Z,-3.50
2019-01-21T09:59:24.241Z,-3.50
2019-01-21T10:01:56.360Z,-3.40
2019-01-21T10:04:38.000Z,-3.40
2019-01-21T10:07:28.080Z,-3.30
2019-01-21T10:10:06.374Z,-3.40
2019-01-21T10:13:47.726Z,-3.40
2019-01-21T10:16:52.954Z,-3.20
2019-01-21T10:20:12.761Z,-3.30
2019-01-21T10:24:12.001Z,-3.20
2019-01-21T10:27:39.314Z,-3.20
2019-01-21T10:30:25.448Z,-3.20
2019-01-21T10:33:49.310Z,-3.20
2019-01-21T10:36:58.672Z,-3.20
2019-01-21T10:40:33.828Z,-3.20
2019-01-21T10:43:38.997Z,-3.10
2019-01-21T10:46:51.231Z,-3.00
2019-01-21T10:49:57.524Z,-3.00
2019-01-21T10:53:19.314Z,-3.00
2019-01-21T10:56:39.067Z,-2.90
2019-01-21T11:00:05.077Z,-2.90
2019-01-21T11:03:00.088Z,-2.80
2019-01-21T11:05:56.108Z,-2.70
2019-01-21T11:09:16.018Z,-2.60
2019-01-21T11:12:47.848Z,-2.60
2019-01-21T11:15:48.243Z,-2.60
2019-01-21T11:19:27.466Z,-2.60
2019-01-21T11:22:10.489Z,-2.60
2019-01-21T11:26:12.946Z,-2.60
2019-01-21T11:30:04.554Z,-2.60
2019-01-21T11:33:43.999Z,-2.60
2019-01-21T11:37:06.065Z,-2.50
2019-01-21T11:40:42.952Z,-2.50
2019-01-21T11:44:17.102Z,-2.40
2019-01-21T11:47:49.911Z,-2.40
2019-01-21T11:51:02.958Z,-2.30
2019-01-21T11:53:48.215Z,-2.30
2019-01-21T11:57:03.627Z,-2.30
2019-01-21T12:00:06.697Z,-2.30
2019-01-21T12:03:23.647Z,-2.20
2019-01-21T12:06:00.935Z,-2.20
2019-01-21T12:09:16.488Z,-2.20
2019-01-21T12:13:12.788Z,-2.20
2019-01-21T12:16:32.769Z,-2.20
2019-01-21T12:19:46.028Z,-2.10
2019-01-21T12:23:20.958Z,-2.10
2019-01-21T12:26:21.885Z,-2.00
2019-01-21T12:29:39.384Z,-2.10
2019-01-21T12:33:11.018Z,-2.10
2019-01-21T12:36:08.340Z,-2.10
2019-01-21T12:39:34.583Z,-2.10
2019-01-21T12:42:53.508Z,-2.10
2019-01-21T12:46:21.182Z,-2.10
2019-01-21T12:49:56.319Z,-2.10
2019-01-21T12:53:02.457Z,-2.10
2019-01-21T12:56:16.145Z,-2.20
2019-01-21T12:59:35.455Z,-2.20
2019-01-21T13:02:47.205Z,-2.30
2019-01-21T13:05:32.573Z,-2.30
2019-01-21T13:08:43.095Z,-2.40
2019-01-21T13:11:40.484Z,-2.50
2019-01-21T13:14:30.250Z,-2.50
2019-01-21T13:17:34.241Z,-2.50
2019-01-21T13:20:31.893Z,-2.60
2019-01-21T13:23:46.984Z,-2.70
2019-01-21T13:26:33.097Z,-2.70
2019-01-21T13:29:46.444Z,-2.70
2019-01-21T13:32:51.140Z,-2.80
2019-01-21T13:35:57.456Z,-2.80
2019-01-21T13:39:09.535Z,-2.80
2019-01-21T13:41:58.609Z,-2.80
2019-01-21T13:44:58.186Z,-2.90
2019-01-21T13:48:04.382Z,-2.90
2019-01-21T13:51:08.700Z,-2.90
2019-01-21T13:54:15.595Z,-2.90
2019-01-21T13:57:32.169Z,-2.80
2019-01-21T14:00:21.558Z,-2.80
2019-01-21T14:03:11.875Z,-2.90
2019-01-21T14:06:40.384Z,-2.90
2019-01-21T14:10:07.281Z,-3.00
2019-01-21T14:13:17.840Z,-2.90
2019-01-21T14:16:17.458Z,-3.00
2019-01-21T14:19:25.219Z,-2.90
2019-01-21T14:22:39.605Z,-3.00
2019-01-21T14:26:04.718Z,-2.90
2019-01-21T14:29:10.755Z,-2.90
2019-01-21T14:32:36.430Z,-2.90
2019-01-21T14:36:00.567Z,-2.90
2019-01-21T14:39:20.638Z,-2.90
2019-01-21T14:42:49.842Z,-3.00
2019-01-21T14:45:54.132Z,-3.00
2019-01-21T14:49:31.475Z,-3.10
2019-01-21T14:52:48.726Z,-3.20
2019-01-21T14:55:46.412Z,-3.30
2019-01-21T14:58:36.652Z,-3.40
2019-01-21T15:01:21.597Z,-3.40
2019-01-21T15:04:47.830Z,-3.40
2019-01-21T15:07:41.673Z,-3.50
2019-01-21T15:10:50.781Z,-3.50
2019-01-21T15:13:46.421Z,-3.50
2019-01-21T15:21:12.172Z,-3.50
2019-01-21T15:24:41.378Z,-3.50
2019-01-21T15:27:44.481Z,-3.50
2019-01-21T15:31:06.405Z,-3.40
2019-01-21T15:34:28.763Z,-3.50
2019-01-21T15:38:19.494Z,-3.50
2019-01-21T15:41:14.331Z,-3.50
2019-01-21T15:44:40.399Z,-3.40
2019-01-21T15:47:56.960Z,-3.40
2019-01-21T15:51:05.951Z,-3.60
2019-01-21T15:54:25.974Z,-3.50
2019-01-21T15:57:20.827Z,-3.40
2019-01-21T16:00:52.169Z,-3.40
2019-01-21T16:04:02.067Z,-3.40
2019-01-21T16:07:03.639Z,-3.30
2019-01-21T16:10:19.362Z,-3.30
2019-01-21T16:12:56.517Z,-3.30
2019-01-21T16:16:24.375Z,-3.30
2019-01-21T16:19:15.256Z,-3.40
2019-01-21T16:22:51.737Z,-3.40
2019-01-21T16:25:55.446Z,-3.30
2019-01-21T16:29:12.150Z,-3.30
2019-01-21T16:32:25.619Z,-3.30
2019-01-21T16:36:03.108Z,-3.30
2019-01-21T16:38:51.940Z,-3.40
2019-01-21T16:41:51.078Z,-3.40
2019-01-21T16:44:18.809Z,-3.40
2019-01-21T16:46:46.318Z,-3.40
2019-01-21T16:49:13.986Z,-3.40
2019-01-21T16:51:41.621Z,-3.40
2019-01-21T16:54:09.271Z,-3.40
2019-01-21T16:56:36.946Z,-3.40
2019-01-21T16:59:04.731Z,-3.40
2019-01-21T17:01:32.091Z,-3.40
2019-01-21T17:03:59.794Z,-3.30
2019-01-21T17:06:27.206Z,-3.30
2019-01-21T17:08:54.606Z,-3.30
2019-01-21T17:11:22.261Z,-3.30
2019-01-21T17:18:26.395Z,-3.20
2019-01-21T17:20:54.008Z,-3.10
2019-01-21T17:23:21.885Z,-3.10
2019-01-21T17:25:50.696Z,-3.10
2019-01-21T17:28:18.300Z,-3.20
2019-01-21T17:30:45.666Z,-3.20
2019-01-21T17:33:13.157Z,-3.20
2019-01-21T17:35:40.628Z,-3.20
2019-01-21T17:38:07.984Z,-3.20
2019-01-21T17:40:35.467Z,-3.20
2019-01-21T17:43:03.219Z,-3.20
2019-01-21T17:45:30.708Z,-3.20
2019-01-21T17:47:58.179Z,-3.20
2019-01-21T17:50:25.536Z,-3.20
2019-01-21T17:52:52.968Z,-3.20
2019-01-21T17:55:20.612Z,-3.20
2019-01-21T17:57:48.278Z,-3.10
2019-01-21T18:00:20.485Z,-3.10
2019-01-21T18:02:48.324Z,-3.10
2019-01-21T18:05:16.510Z,-3.20
2019-01-21T18:07:44.267Z,-3.10
2019-01-21T18:10:13.801Z,-3.20
2019-01-21T18:12:42.545Z,-3.20
2019-01-21T18:15:11.479Z,-3.20
2019-01-21T18:17:39.456Z,-3.20
2019-01-21T18:20:15.841Z,-3.10
2019-01-21T18:22:43.980Z,-3.10
2019-01-21T18:25:12.247Z,-3.10
2019-01-21T18:27:42.019Z,-3.00
2019-01-21T18:30:15.897Z,-3.20
2019-01-21T18:35:25.970Z,-3.20
2019-01-21T18:37:55.341Z,-3.30
2019-01-21T18:40:24.423Z,-3.30
2019-01-21T18:42:53.884Z,-3.30
2019-01-21T18:45:27.272Z,-3.40
2019-01-21T18:47:55.418Z,-3.40
2019-01-21T18:50:24.854Z,-3.50
2019-01-21T18:52:52.867Z,-3.50
2019-01-21T18:55:20.763Z,-3.50
2019-01-21T18:57:55.718Z,-3.60
2019-01-21T19:00:22.336Z,-3.60
2019-01-21T19:02:50.214Z,-3.70
2019-01-21T19:05:18.712Z,-3.80
2019-01-21T19:07:47.044Z,-3.80
2019-01-21T19:10:17.141Z,-3.80
2019-01-21T19:12:44.922Z,-3.90
2019-01-21T19:15:22.812Z,-3.90
2019-01-21T19:17:50.640Z,-3.90
2019-01-21T19:20:19.772Z,-3.80
2019-01-21T19:22:48.249Z,-3.70
2019-01-21T19:25:16.038Z,-3.80
2019-01-21T19:27:44.266Z,-3.90
2019-01-21T19:30:16.295Z,-3.80
2019-01-21T19:32:44.268Z,-3.80
2019-01-21T19:35:14.853Z,-3.80
2019-01-21T19:37:43.433Z,-3.80
2019-01-21T19:40:15.537Z,-3.80
2019-01-21T19:42:43.770Z,-3.80
2019-01-21T19:45:12.249Z,-3.80
2019-01-21T19:47:40.075Z,-3.80
2019-01-21T19:50:09.185Z,-3.80
2019-01-21T19:52:36.991Z,-3.80
2019-01-21T19:55:09.793Z,-3.70
2019-01-21T19:57:38.253Z,-3.70
2019-01-21T20:00:11.750Z,-3.70
2019-01-21T20:02:39.537Z,-3.70
2019-01-21T20:05:09.050Z,-3.70
2019-01-21T20:07:37.395Z,-3.70
2019-01-21T20:10:07.513Z,-3.70
2019-01-21T20:12:35.446Z,-3.80
2019-01-21T20:15:05.909Z,-3.80
2019-01-21T20:17:33.804Z,-3.90
2019-01-21T20:20:02.385Z,-3.80
2019-01-21T20:22:30.571Z,-3.80
2019-01-21T20:24:59.119Z,-3.80
2019-01-21T20:27:27.100Z,-3.80
2019-01-21T20:29:54.990Z,-3.80
2019-01-21T20:32:23.269Z,-3.70
2019-01-21T20:34:59.193Z,-3.80
2019-01-21T20:37:27.377Z,-3.90
2019-01-21T20:39:55.677Z,-3.90
2019-01-21T20:42:24.245Z,-3.90
2019-01-21T20:44:51.690Z,-4.00
2019-01-21T20:47:19.125Z,-4.00
2019-01-21T20:49:46.679Z,-4.20
2019-01-21T20:52:15.634Z,-4.20
2019-01-21T20:54:43.937Z,-4.10
2019-01-21T20:57:11.687Z,-4.10
2019-01-21T20:59:39.384Z,-4.10
2019-01-21T21:02:07.255Z,-4.10
2019-01-21T21:04:35.201Z,-4.10
2019-01-21T21:07:03.459Z,-4.10
2019-01-21T21:09:31.906Z,-4.20
2019-01-21T21:12:00.879Z,-4.10
2019-01-21T21:14:30.100Z,-4.20
2019-01-21T21:16:58.211Z,-4.10
2019-01-21T21:19:26.804Z,-4.10
2019-01-21T21:21:54.923Z,-4.10
2019-01-21T21:24:23.220Z,-4.20
2019-01-21T21:26:51.598Z,-4.30
2019-01-21T21:29:19.846Z,-4.20
2019-01-21T21:31:48.611Z,-4.20
2019-01-21T21:34:17.070Z,-4.20
2019-01-21T21:36:45.328Z,-4.30
2019-01-21T21:39:13.621Z,-4.20
2019-01-21T21:41:42.221Z,-4.30
2019-01-21T21:44:11.755Z,-4.40
2019-01-21T21:46:40.765Z,-4.50
2019-01-21T21:49:08.885Z,-4.40
2019-01-21T21:51:37.326Z,-4.40
2019-01-21T21:54:05.480Z,-4.30
2019-01-21T21:56:33.648Z,-4.30
2019-01-21T21:59:01.815Z,-4.30
2019-01-21T22:01:30.206Z,-4.20
2019-01-21T22:03:58.512Z,-4.30
2019-01-21T22:06:26.583Z,-4.40
2019-01-21T22:08:54.923Z,-4.30
2019-01-21T22:11:23.327Z,-4.30
2019-01-21T22:13:51.515Z,-4.30
2019-01-21T22:16:19.679Z,-4.30
2019-01-21T22:18:47.856Z,-4.30
2019-01-21T22:21:16.056Z,-4.30
2019-01-21T22:23:44.127Z,-4.30
2019-01-21T22:26:12.029Z,-4.20
2019-01-21T22:28:40.165Z,-4.20
2019-01-21T22:31:07.928Z,-4.20
2019-01-21T22:33:35.619Z,-4.20
2019-01-21T22:36:03.218Z,-4.20
2019-01-21T22:38:31.970Z,-4.20
2019-01-21T22:40:59.588Z,-4.20
2019-01-21T22:43:27.473Z,-4.20
2019-01-21T22:45:55.156Z,-4.20
2019-01-21T22:48:22.824Z,-4.20
2019-01-21T22:50:50.901Z,-4.20
2019-01-21T22:53:18.592Z,-4.20
2019-01-21T22:55:46.225Z,-4.20
2019-01-21T22:58:13.818Z,-4.20
2019-01-21T23:00:58.039Z,-4.20
2019-01-21T23:03:27.903Z,-4.20
2019-01-21T23:05:55.804Z,-4.20
2019-01-21T23:08:23.510Z,-4.20
2019-01-21T23:10:51.034Z,-4.20
2019-01-21T23:13:18.833Z,-4.20
2019-01-21T23:15:48.783Z,-4.20
2019-01-21T23:18:16.764Z,-4.20
2019-01-21T23:20:44.245Z,-4.20
2019-01-21T23:23:11.863Z,-4.20
2019-01-21T23:25:39.664Z,-4.30
2019-01-21T23:28:07.166Z,-4.40
2019-01-21T23:30:35.630Z,-4.40
2019-01-21T23:33:04.623Z,-4.40
2019-01-21T23:35:32.250Z,-4.40
2019-01-21T23:37:59.936Z,-4.50
2019-01-21T23:40:27.774Z,-4.60
2019-01-21T23:42:55.398Z,-4.70
2019-01-21T23:45:23.100Z,-4.70
2019-01-21T23:47:50.883Z,-4.70
2019-01-21T23:50:18.321Z,-4.70
2019-01-21T23:52:45.786Z,-4.70
2019-01-21T23:55:13.514Z,-4.70
2019-01-21T23:57:41.317Z,-4.70
